createdAt,value
2023-03-25T00:01:18.233Z,49.20
2023-03-25T00:03:50.462Z,49.05
2023-03-25T00:06:17.309Z,48.69
2023-03-25T00:08:43.907Z,48.83
2023-03-25T00:11:10.474Z,48.94
2023-03-25T00:13:37.240Z,49.16
2023-03-25T00:16:04.481Z,48.60
2023-03-25T00:18:34.243Z,48.67
2023-03-25T00:21:02.551Z,48.84
2023-03-25T00:23:31.139Z,48.85
2023-03-25T00:26:00.637Z,48.70
2023-03-25T00:28:33.253Z,48.42
2023-03-25T00:31:01.840Z,48.22
2023-03-25T00:33:29.195Z,48.29
2023-03-25T00:36:01.858Z,48.29
2023-03-25T00:38:33.582Z,48.59
2023-03-25T00:41:11.944Z,48.55
2023-03-25T00:43:38.801Z,49.23
2023-03-25T00:46:05.470Z,48.22
2023-03-25T00:48:32.014Z,48.20
2023-03-25T00:50:58.741Z,48.17
2023-03-25T00:53:25.447Z,48.83
2023-03-25T00:55:56.995Z,48.63
2023-03-25T00:58:23.502Z,48.79
2023-03-25T01:00:50.573Z,48.45
2023-03-25T01:03:17.198Z,48.52
2023-03-25T01:05:43.746Z,48.56
2023-03-25T01:08:11.143Z,48.67
2023-03-25T01:10:38.043Z,48.70
2023-03-25T01:13:04.550Z,48.91
2023-03-25T01:15:31.167Z,48.58
2023-03-25T01:17:57.733Z,48.44
2023-03-25T01:20:24.321Z,48.68
2023-03-25T01:22:50.897Z,48.47
2023-03-25T01:25:17.481Z,48.49
2023-03-25T01:27:44.196Z,48.36
2023-03-25T01:30:11.534Z,48.30
2023-03-25T01:32:38.135Z,48.31
2023-03-25T01:35:06.387Z,48.48
2023-03-25T01:37:34.174Z,48.39
2023-03-25T01:40:00.704Z,48.75
2023-03-25T01:42:27.205Z,48.89
2023-03-25T01:44:53.678Z,48.74
2023-03-25T01:47:20.364Z,48.72
2023-03-25T01:49:47.079Z,48.51
2023-03-25T01:52:21.315Z,48.47
2023-03-25T01:54:50.269Z,48.52
2023-03-25T01:57:20.674Z,48.76
2023-03-25T01:59:47.957Z,48.71
2023-03-25T02:02:17.741Z,48.39
2023-03-25T02:05:01.979Z,48.57
2023-03-25T02:07:32.524Z,48.68
2023-03-25T02:10:06.674Z,49.00
2023-03-25T02:12:33.622Z,48.82
2023-03-25T02:15:02.809Z,48.91
2023-03-25T02:17:47.663Z,48.71
2023-03-25T02:21:03.638Z,49.07
2023-03-25T02:23:57.987Z,48.88
2023-03-25T02:26:29.755Z,48.75
2023-03-25T02:29:28.142Z,49.05
2023-03-25T02:31:54.654Z,48.76
2023-03-25T02:34:49.081Z,48.79
2023-03-25T02:37:53.226Z,49.11
2023-03-25T02:40:25.791Z,49.02
2023-03-25T02:43:00.227Z,48.87
2023-03-25T02:45:33.820Z,49.08
2023-03-25T02:48:18.301Z,48.83
2023-03-25T02:50:52.344Z,49.02
2023-03-25T02:53:26.006Z,48.91
2023-03-25T02:55:57.523Z,48.82
2023-03-25T02:58:25.123Z,48.93
2023-03-25T03:00:53.475Z,48.94
2023-03-25T03:03:20.490Z,48.83
2023-03-25T03:05:51.581Z,49.23
2023-03-25T03:08:27.190Z,48.95
2023-03-25T03:11:15.395Z,48.88
2023-03-25T03:14:34.418Z,49.23
2023-03-25T03:17:07.112Z,49.02
2023-03-25T03:19:40.489Z,48.85
2023-03-25T03:22:35.324Z,48.96
2023-03-25T03:25:34.712Z,49.13
2023-03-25T03:28:01.452Z,48.83
2023-03-25T03:30:43.077Z,48.75
2023-03-25T03:33:25.418Z,49.02
2023-03-25T03:36:02.123Z,48.79
2023-03-25T03:38:34.828Z,48.90
2023-03-25T03:41:06.627Z,48.73
2023-03-25T03:43:45.204Z,48.53
2023-03-25T03:46:22.636Z,49.05
2023-03-25T03:48:55.189Z,49.02
2023-03-25T03:51:41.568Z,48.78
2023-03-25T03:54:23.507Z,49.16
2023-03-25T03:57:01.826Z,49.02
2023-03-25T03:59:35.198Z,48.94
2023-03-25T04:02:08.977Z,49.31
2023-03-25T04:04:38.838Z,49.29
2023-03-25T04:07:17.048Z,49.65
2023-03-25T04:09:57.193Z,49.57
2023-03-25T04:12:35.167Z,49.83
2023-03-25T04:15:03.607Z,49.17
2023-03-25T04:17:32.870Z,49.55
2023-03-25T04:20:00.487Z,49.65
2023-03-25T04:22:26.990Z,49.76
2023-03-25T04:24:55.031Z,49.73
2023-03-25T04:27:23.147Z,49.86
2023-03-25T04:29:51.772Z,49.69
2023-03-25T04:32:18.748Z,50.00
2023-03-25T04:34:46.910Z,50.02
2023-03-25T04:37:13.914Z,49.70
2023-03-25T04:39:40.532Z,49.50
2023-03-25T04:42:07.087Z,49.87
2023-03-25T04:44:33.914Z,49.66
2023-03-25T04:47:02.245Z,50.22
2023-03-25T04:49:28.746Z,49.84
2023-03-25T04:51:56.873Z,50.00
2023-03-25T04:54:23.997Z,49.83
2023-03-25T04:56:52.127Z,49.91
2023-03-25T04:59:21.069Z,50.06
2023-03-25T05:01:48.401Z,49.56
2023-03-25T05:04:17.181Z,49.73
2023-03-25T05:06:46.937Z,49.91
2023-03-25T05:09:16.308Z,49.77
2023-03-25T05:11:43.139Z,50.06
2023-03-25T05:14:11.228Z,50.01
2023-03-25T05:16:38.073Z,49.71
2023-03-25T05:19:06.615Z,49.65
2023-03-25T05:21:36.043Z,50.21
2023-03-25T05:24:03.807Z,50.08
2023-03-25T05:26:34.309Z,50.26
2023-03-25T05:29:05.271Z,50.59
2023-03-25T05:31:31.955Z,50.30
2023-03-25T05:33:58.546Z,50.03
2023-03-25T05:36:26.184Z,50.73
2023-03-25T05:38:55.202Z,50.36
2023-03-25T05:41:22.878Z,50.38
2023-03-25T05:43:50.864Z,50.26
2023-03-25T05:46:19.170Z,50.41
2023-03-25T05:48:46.152Z,50.64
2023-03-25T05:51:16.224Z,50.71
2023-03-25T05:53:50.041Z,50.78
2023-03-25T05:56:19.237Z,50.84
2023-03-25T05:58:47.298Z,50.85
2023-03-25T06:01:31.297Z,51.09
2023-03-25T06:04:03.453Z,50.70
2023-03-25T06:06:32.390Z,50.93
2023-03-25T06:08:59.518Z,51.09
2023-03-25T06:11:26.081Z,50.57
2023-03-25T06:13:54.076Z,50.93
2023-03-25T06:16:23.383Z,50.60
2023-03-25T06:18:56.024Z,50.90
2023-03-25T06:21:32.929Z,50.75
2023-03-25T06:24:01.708Z,50.66
2023-03-25T06:26:28.382Z,50.61
2023-03-25T06:28:55.017Z,50.54
2023-03-25T06:31:33.156Z,50.88
2023-03-25T06:33:59.726Z,50.46
2023-03-25T06:36:26.265Z,50.61
2023-03-25T06:38:53.680Z,50.78
2023-03-25T06:41:20.912Z,50.63
2023-03-25T06:43:48.982Z,50.81
2023-03-25T06:46:16.466Z,51.03
2023-03-25T06:48:42.984Z,50.61
2023-03-25T06:51:09.531Z,50.70
2023-03-25T06:53:36.108Z,50.34
2023-03-25T06:56:02.808Z,50.82
2023-03-25T06:58:34.830Z,50.73
2023-03-25T07:01:06.631Z,50.94
2023-03-25T07:03:34.143Z,50.97
2023-03-25T07:06:00.770Z,51.18
2023-03-25T07:08:27.354Z,50.87
2023-03-25T07:10:53.907Z,50.87
2023-03-25T07:13:20.394Z,50.91
2023-03-25T07:15:47.034Z,50.88
2023-03-25T07:18:16.085Z,50.96
2023-03-25T07:20:46.481Z,51.13
2023-03-25T07:23:13.479Z,51.03
2023-03-25T07:25:40.001Z,50.87
2023-03-25T07:28:06.564Z,51.29
2023-03-25T07:30:33.074Z,51.19
2023-03-25T07:32:59.715Z,51.24
2023-03-25T07:35:26.304Z,51.63
2023-03-25T07:37:52.958Z,51.20
2023-03-25T07:40:19.480Z,51.35
2023-03-25T07:42:46.037Z,50.94
2023-03-25T07:45:12.826Z,51.38
2023-03-25T07:47:39.452Z,51.62
2023-03-25T07:50:06.833Z,51.10
2023-03-25T07:52:33.491Z,50.79
2023-03-25T07:55:00.926Z,50.88
2023-03-25T07:57:27.563Z,51.71
2023-03-25T07:59:54.095Z,50.98
2023-03-25T08:02:20.946Z,50.98
2023-03-25T08:04:47.547Z,50.92
2023-03-25T08:07:14.052Z,51.17
2023-03-25T08:09:41.476Z,50.93
2023-03-25T08:12:09.109Z,51.03
2023-03-25T08:14:35.817Z,50.73
2023-03-25T08:17:02.315Z,51.01
2023-03-25T08:19:28.914Z,51.00
2023-03-25T08:21:55.983Z,50.83
2023-03-25T08:24:24.530Z,50.81
2023-03-25T08:26:51.062Z,50.57
2023-03-25T08:29:17.890Z,50.63
2023-03-25T08:31:46.606Z,50.20
2023-03-25T08:34:13.781Z,50.79
2023-03-25T08:36:40.369Z,51.06
2023-03-25T08:39:11.684Z,50.40
2023-03-25T08:41:39.668Z,50.46
2023-03-25T08:44:07.298Z,50.33
2023-03-25T08:46:33.856Z,50.79
2023-03-25T08:49:01.211Z,50.23
2023-03-25T08:51:27.746Z,50.68
2023-03-25T08:53:54.394Z,50.67
2023-03-25T08:56:20.934Z,50.06
2023-03-25T08:58:47.453Z,49.90
2023-03-25T09:01:14.172Z,50.69
2023-03-25T09:03:41.075Z,50.30
2023-03-25T09:06:09.202Z,50.26
2023-03-25T09:08:39.869Z,50.37
2023-03-25T09:11:06.666Z,50.22
2023-03-25T09:13:33.241Z,50.07
2023-03-25T09:15:59.786Z,49.83
2023-03-25T09:18:26.375Z,49.79
2023-03-25T09:20:57.961Z,49.59
2023-03-25T09:23:24.674Z,50.00
2023-03-25T09:25:51.391Z,49.63
2023-03-25T09:28:18.147Z,49.78
2023-03-25T09:30:44.714Z,50.02
2023-03-25T09:33:12.153Z,50.29
2023-03-25T09:35:40.843Z,49.92
2023-03-25T09:38:07.512Z,49.70
2023-03-25T09:40:34.245Z,49.74
2023-03-25T09:43:15.397Z,49.90
2023-03-25T09:45:49.987Z,49.48
2023-03-25T09:48:25.867Z,49.73
2023-03-25T09:50:53.628Z,49.62
2023-03-25T09:53:37.706Z,49.77
2023-03-25T09:56:10.641Z,49.81
2023-03-25T09:58:46.188Z,49.44
2023-03-25T10:01:27.652Z,49.02
2023-03-25T10:04:20.302Z,49.10
2023-03-25T10:07:14.825Z,49.10
2023-03-25T10:09:47.340Z,49.12
2023-03-25T10:12:37.522Z,49.54
2023-03-25T10:15:25.020Z,48.67
2023-03-25T10:18:09.634Z,48.99
2023-03-25T10:21:11.257Z,48.54
2023-03-25T10:24:19.151Z,48.69
2023-03-25T10:26:48.666Z,49.13
2023-03-25T10:29:21.430Z,48.94
2023-03-25T10:31:56.733Z,48.36
2023-03-25T10:34:46.694Z,48.72
2023-03-25T10:37:18.091Z,48.15
2023-03-25T10:39:47.319Z,48.45
2023-03-25T10:42:34.887Z,48.54
2023-03-25T10:45:01.541Z,47.76
2023-03-25T10:47:36.389Z,47.63
2023-03-25T10:50:04.542Z,47.85
2023-03-25T10:52:31.218Z,47.60
2023-03-25T10:54:58.720Z,47.92
2023-03-25T10:57:32.223Z,47.46
2023-03-25T11:00:18.826Z,48.23
2023-03-25T11:02:46.990Z,47.64
2023-03-25T11:05:18.974Z,47.52
2023-03-25T11:07:55.149Z,47.75
2023-03-25T11:10:28.272Z,47.44
2023-03-25T11:12:58.424Z,47.78
2023-03-25T11:15:29.715Z,46.98
2023-03-25T11:18:22.175Z,47.34
2023-03-25T11:20:56.524Z,47.32
2023-03-25T11:23:31.118Z,47.36
2023-03-25T11:26:06.175Z,47.51
2023-03-25T11:28:38.147Z,47.13
2023-03-25T11:31:17.242Z,46.83
2023-03-25T11:33:46.728Z,47.33
2023-03-25T11:36:17.739Z,46.86
2023-03-25T11:38:50.922Z,47.12
2023-03-25T11:41:17.562Z,46.98
2023-03-25T11:43:48.847Z,46.65
2023-03-25T11:46:18.909Z,46.68
2023-03-25T11:48:46.851Z,46.33
2023-03-25T11:51:16.412Z,46.53
2023-03-25T11:53:59.300Z,46.47
2023-03-25T11:56:38.261Z,46.27
2023-03-25T11:59:25.858Z,46.01
2023-03-25T12:02:01.842Z,46.16
2023-03-25T12:04:29.699Z,45.89
2023-03-25T12:07:02.043Z,46.43
2023-03-25T12:09:31.724Z,46.18
2023-03-25T12:12:36.569Z,45.57
2023-03-25T12:15:08.967Z,45.63
2023-03-25T12:17:59.554Z,44.85
2023-03-25T12:20:29.926Z,45.71
2023-03-25T12:23:15.502Z,45.58
2023-03-25T12:25:53.814Z,44.74
2023-03-25T12:28:47.775Z,44.92
2023-03-25T12:31:48.354Z,44.66
2023-03-25T12:34:44.815Z,44.57
2023-03-25T12:37:42.101Z,44.76
2023-03-25T12:40:23.727Z,44.10
2023-03-25T12:43:00.375Z,44.05
2023-03-25T12:45:39.679Z,44.44
2023-03-25T12:48:12.345Z,44.20
2023-03-25T12:51:03.362Z,44.53
2023-03-25T12:53:48.524Z,43.96
2023-03-25T12:57:06.362Z,43.94
2023-03-25T12:59:36.388Z,43.95
2023-03-25T13:02:14.729Z,43.82
2023-03-25T13:05:08.965Z,43.41
2023-03-25T13:07:38.671Z,43.31
2023-03-25T13:10:27.790Z,42.92
2023-03-25T13:12:59.620Z,43.54
2023-03-25T13:15:36.619Z,43.42
2023-03-25T13:18:22.439Z,43.69
2023-03-25T13:20:58.975Z,43.42
2023-03-25T13:23:29.050Z,43.86
2023-03-25T13:26:01.093Z,43.59
2023-03-25T13:28:38.320Z,43.67
2023-03-25T13:31:08.324Z,44.34
2023-03-25T13:33:43.064Z,43.93
2023-03-25T13:36:16.073Z,44.25
2023-03-25T13:38:56.493Z,44.69
2023-03-25T13:41:28.337Z,44.85
2023-03-25T13:44:16.941Z,44.42
2023-03-25T13:46:48.432Z,44.47
2023-03-25T13:49:27.695Z,44.30
2023-03-25T13:51:54.960Z,44.53
2023-03-25T13:54:47.016Z,45.08
2023-03-25T13:57:13.579Z,45.37
2023-03-25T14:00:14.679Z,44.75
2023-03-25T14:02:47.150Z,44.94
2023-03-25T14:05:51.518Z,45.76
2023-03-25T14:08:22.590Z,45.94
2023-03-25T14:11:23.047Z,45.22
2023-03-25T14:13:55.737Z,45.19
2023-03-25T14:16:27.210Z,45.45
2023-03-25T14:18:59.905Z,45.60
2023-03-25T14:21:27.102Z,45.18
2023-03-25T14:24:28.499Z,45.54
2023-03-25T14:27:05.686Z,45.25
2023-03-25T14:29:46.429Z,45.30
2023-03-25T14:32:16.050Z,45.25
2023-03-25T14:34:44.488Z,45.84
2023-03-25T14:37:34.145Z,45.44
2023-03-25T14:40:21.970Z,45.67
2023-03-25T14:42:59.906Z,45.81
2023-03-25T14:45:32.470Z,45.28
2023-03-25T14:48:00.629Z,45.55
2023-03-25T14:50:29.846Z,45.87
2023-03-25T14:53:05.105Z,45.66
2023-03-25T14:55:44.061Z,45.42
2023-03-25T14:58:27.758Z,45.46
2023-03-25T15:01:00.158Z,44.64
2023-03-25T15:04:07.797Z,44.74
2023-03-25T15:06:34.981Z,44.69
2023-03-25T15:09:09.619Z,44.60
2023-03-25T15:11:38.864Z,45.00
2023-03-25T15:14:19.046Z,44.39
2023-03-25T15:16:48.686Z,44.56
2023-03-25T15:19:17.626Z,44.39
2023-03-25T15:22:02.905Z,44.06
2023-03-25T15:24:33.942Z,44.53
2023-03-25T15:27:08.489Z,44.40
2023-03-25T15:29:54.960Z,44.20
2023-03-25T15:32:53.063Z,43.83
2023-03-25T15:35:48.536Z,44.48
2023-03-25T15:38:30.990Z,44.38
2023-03-25T15:41:11.333Z,44.19
2023-03-25T15:44:22.693Z,44.06
2023-03-25T15:47:25.780Z,44.19
2023-03-25T15:50:17.015Z,44.44
2023-03-25T15:53:41.396Z,44.39
2023-03-25T15:56:15.973Z,44.35
2023-03-25T15:59:24.548Z,44.80
2023-03-25T16:01:52.947Z,44.87
2023-03-25T16:04:40.525Z,44.75
2023-03-25T16:07:12.183Z,44.93
2023-03-25T16:09:44.718Z,45.41
2023-03-25T16:12:11.984Z,45.08
2023-03-25T16:14:39.538Z,45.34
2023-03-25T16:17:08.823Z,45.35
2023-03-25T16:19:41.677Z,45.51
2023-03-25T16:22:20.476Z,45.37
2023-03-25T16:24:48.776Z,45.67
2023-03-25T16:27:34.380Z,45.07
2023-03-25T16:30:01.355Z,45.09
2023-03-25T16:32:33.994Z,45.17
2023-03-25T16:35:00.885Z,44.50
2023-03-25T16:37:28.655Z,44.00
2023-03-25T16:39:57.595Z,43.99
2023-03-25T16:42:34.332Z,43.56
2023-03-25T16:45:02.432Z,43.92
2023-03-25T16:47:33.297Z,43.58
2023-03-25T16:50:01.590Z,43.96
2023-03-25T16:52:31.887Z,44.01
2023-03-25T16:54:58.390Z,43.67
2023-03-25T16:57:32.534Z,44.77
2023-03-25T17:00:17.212Z,43.90
2023-03-25T17:02:45.867Z,44.56
2023-03-25T17:05:20.519Z,44.35
2023-03-25T17:07:50.028Z,44.26
2023-03-25T17:10:25.435Z,44.89
2023-03-25T17:13:11.077Z,45.03
2023-03-25T17:15:38.362Z,45.15
2023-03-25T17:18:14.314Z,45.05
2023-03-25T17:20:43.721Z,45.04
2023-03-25T17:23:19.174Z,45.51
2023-03-25T17:26:00.119Z,45.44
2023-03-25T17:28:58.035Z,45.66
2023-03-25T17:31:30.528Z,45.37
2023-03-25T17:34:11.854Z,46.23
2023-03-25T17:36:42.068Z,45.96
2023-03-25T17:39:21.608Z,45.61
2023-03-25T17:42:01.537Z,45.55
2023-03-25T17:44:39.179Z,46.12
2023-03-25T17:47:08.305Z,45.92
2023-03-25T17:49:35.312Z,46.02
2023-03-25T17:52:02.879Z,45.97
2023-03-25T17:54:29.571Z,45.91
2023-03-25T17:56:56.339Z,46.07
2023-03-25T17:59:27.580Z,45.68
2023-03-25T18:01:54.234Z,46.10
2023-03-25T18:04:21.873Z,45.69
2023-03-25T18:06:48.898Z,46.36
2023-03-25T18:09:24.806Z,45.82
2023-03-25T18:11:54.465Z,46.07
2023-03-25T18:14:22.293Z,46.48
2023-03-25T18:16:50.024Z,46.31
2023-03-25T18:19:31.072Z,46.31
2023-03-25T18:22:01.990Z,46.11
2023-03-25T18:24:34.127Z,46.10
2023-03-25T18:27:00.716Z,46.43
2023-03-25T18:29:30.511Z,46.00
2023-03-25T18:31:58.057Z,46.29
2023-03-25T18:34:26.057Z,46.14
2023-03-25T18:36:53.982Z,46.59
2023-03-25T18:39:26.172Z,47.04
2023-03-25T18:41:52.818Z,46.80
2023-03-25T18:44:19.689Z,46.34
2023-03-25T18:46:46.657Z,46.63
2023-03-25T18:49:16.786Z,47.40
2023-03-25T18:51:43.844Z,47.48
2023-03-25T18:54:11.064Z,47.35
2023-03-25T18:56:37.927Z,47.32
2023-03-25T18:59:04.490Z,47.01
2023-03-25T19:01:31.024Z,47.10
2023-03-25T19:04:02.553Z,47.16
2023-03-25T19:06:30.393Z,47.19
2023-03-25T19:08:57.458Z,47.17
2023-03-25T19:11:24.562Z,47.77
2023-03-25T19:13:52.122Z,47.59
2023-03-25T19:16:22.019Z,48.16
2023-03-25T19:18:48.826Z,48.23
2023-03-25T19:21:17.688Z,47.74
2023-03-25T19:23:44.449Z,48.25
2023-03-25T19:26:12.189Z,47.70
2023-03-25T19:28:39.040Z,48.44
2023-03-25T19:31:05.636Z,48.12
2023-03-25T19:33:32.451Z,47.84
2023-03-25T19:36:01.474Z,48.11
2023-03-25T19:38:28.714Z,48.07
2023-03-25T19:41:10.484Z,48.26
2023-03-25T19:43:37.635Z,48.44
2023-03-25T19:46:08.077Z,48.63
2023-03-25T19:48:35.517Z,48.59
2023-03-25T19:51:02.276Z,48.60
2023-03-25T19:53:29.323Z,48.24
2023-03-25T19:55:56.779Z,49.10
2023-03-25T19:58:25.941Z,48.55
2023-03-25T20:00:53.034Z,48.67
2023-03-25T20:03:24.024Z,48.63
2023-03-25T20:05:57.476Z,48.81
2023-03-25T20:08:25.788Z,48.54
2023-03-25T20:10:53.648Z,48.68
2023-03-25T20:13:20.825Z,48.79
2023-03-25T20:15:50.768Z,49.40
2023-03-25T20:18:18.174Z,49.35
2023-03-25T20:20:44.752Z,49.35
2023-03-25T20:23:11.657Z,49.24
2023-03-25T20:25:38.478Z,49.25
2023-03-25T20:28:05.984Z,49.53
2023-03-25T20:30:36.026Z,49.74
2023-03-25T20:33:02.725Z,49.66
2023-03-25T20:35:30.395Z,49.79
2023-03-25T20:37:57.558Z,49.60
2023-03-25T20:40:33.871Z,49.46
2023-03-25T20:43:04.546Z,49.46
2023-03-25T20:45:32.808Z,49.63
2023-03-25T20:47:59.687Z,50.16
2023-03-25T20:50:27.156Z,50.08
2023-03-25T20:52:53.893Z,49.94
2023-03-25T20:55:21.062Z,50.05
2023-03-25T20:57:47.577Z,49.89
2023-03-25T21:00:14.563Z,49.98
2023-03-25T21:02:41.732Z,50.01
2023-03-25T21:05:08.664Z,49.88
2023-03-25T21:07:35.519Z,49.82
2023-03-25T21:10:02.311Z,50.05
2023-03-25T21:12:40.495Z,49.87
2023-03-25T21:15:10.263Z,49.82
2023-03-25T21:17:37.221Z,50.21
2023-03-25T21:20:07.550Z,50.21
2023-03-25T21:22:34.844Z,50.22
2023-03-25T21:25:01.493Z,49.82
2023-03-25T21:27:38.991Z,49.83
2023-03-25T21:30:07.916Z,50.23
2023-03-25T21:32:34.655Z,50.30
2023-03-25T21:35:01.226Z,50.12
2023-03-25T21:37:28.997Z,49.97
2023-03-25T21:39:57.977Z,50.43
2023-03-25T21:42:24.873Z,50.37
2023-03-25T21:44:51.588Z,50.12
2023-03-25T21:47:18.271Z,50.26
2023-03-25T21:49:44.809Z,50.45
2023-03-25T21:52:14.760Z,50.58
2023-03-25T21:54:43.370Z,50.17
2023-03-25T21:57:11.395Z,50.57
2023-03-25T21:59:38.427Z,50.51
2023-03-25T22:02:05.851Z,50.70
2023-03-25T22:04:34.760Z,50.35
2023-03-25T22:07:01.336Z,50.77
2023-03-25T22:09:27.813Z,50.48
2023-03-25T22:11:54.415Z,50.50
2023-03-25T22:14:20.910Z,50.36
2023-03-25T22:16:47.478Z,50.32
2023-03-25T22:19:14.131Z,50.48
2023-03-25T22:21:40.816Z,50.67
2023-03-25T22:24:08.105Z,50.69
2023-03-25T22:26:36.759Z,50.19
2023-03-25T22:29:06.076Z,50.35
2023-03-25T22:31:39.298Z,50.65
2023-03-25T22:34:11.848Z,50.46
2023-03-25T22:36:40.784Z,50.30
2023-03-25T22:39:07.640Z,50.15
2023-03-25T22:41:34.267Z,50.47
2023-03-25T22:44:00.877Z,50.54
2023-03-25T22:46:27.479Z,50.20
2023-03-25T22:48:54.022Z,50.32
2023-03-25T22:51:21.173Z,50.18
2023-03-25T22:53:48.415Z,50.25
2023-03-25T22:56:15.142Z,50.22
2023-03-25T22:58:41.990Z,50.17
2023-03-25T23:01:23.978Z,50.30
2023-03-25T23:03:51.575Z,50.12
2023-03-25T23:06:18.237Z,50.04
2023-03-25T23:08:45.201Z,50.56
2023-03-25T23:11:20.482Z,50.06
2023-03-25T23:13:51.430Z,50.53
2023-03-25T23:16:20.048Z,50.09
2023-03-25T23:18:46.826Z,50.05
2023-03-25T23:21:15.916Z,50.14
2023-03-25T23:23:53.414Z,50.30
2023-03-25T23:26:24.828Z,50.38
2023-03-25T23:28:53.061Z,50.46
2023-03-25T23:31:29.061Z,50.29
2023-03-25T23:33:58.923Z,50.40
2023-03-25T23:36:28.174Z,50.16
2023-03-25T23:38:55.090Z,49.99
2023-03-25T23:41:23.207Z,50.46
2023-03-25T23:43:50.964Z,50.09
2023-03-25T23:46:18.581Z,50.24
2023-03-25T23:48:46.045Z,50.55
2023-03-25T23:51:18.170Z,49.93
2023-03-25T23:53:46.932Z,49.63
2023-03-25T23:56:15.829Z,50.31
2023-03-25T23:58:43.022Z,49.99
